Terminal Aerodrome Forecast
Issued by NWS

Current Version | Previous Version | Text Only | Print | Product List | Glossary On
Versions: 1 2 3 4 5 6 7 8 9 10 11 12 13 14 15 16 17 18 19 20 21 22 23 24 25 26 27 28 29 30 31 32 33 34 35 36 37 38 39
000
FTPA31 PHFO 040700 AAA
TAFITO
TAF AMD
PHTO 040731Z 0408/0506 VRB05KT P6SM VCSH SCT025 BKN040
      TEMPO 0408/0409 2SM SHRA BKN020 BKN040
     FM040900 23005KT P6SM VCSH SCT025 BKN040
     FM042100 08008KT P6SM VCSH SCT025 BKN045=

USA.gov is the U.S. government's official web portal to all federal, state and local government web resources and services.